KABY/ABY METAR and TAF weather

Enter ICAO airport designator
Station Type Date Time Source
KABY METAR 2020/12/05 04:53 UTC NOAA

KABY 050453Z AUTO 30004KT 10SM CLR 07/04 A3016 RMK AO2 SLP211 T00670044 402280067


Station Type Date Time Source
KABY Decoded METAR 2020/12/05 04:53 UTC NOAA

ALBANY SOUTHWEST GEORGIA, GA, United States (KABY) 31-32N 084-12W 58M
Dec 04, 2020 - 11:53 PM EST / 2020.12.05 0453 UTC
Wind: from the WNW (300 degrees) at 5 MPH (4 KT):0
Visibility: 10 mile(s):0
Sky conditions: clear
Temperature: 44.1 F (6.7 C)
Dew Point: 39.9 F (4.4 C)
Relative Humidity: 85%
Pressure (altimeter): 30.16 in. Hg (1021 hPa)
ob: KABY 050453Z AUTO 30004KT 10SM CLR 07/04 A3016 RMK AO2 SLP211 T00670044 402280067
cycle: 5

Station Type Date Time Source
KABY TAF 2020/12/05 06:22 UTC NOAA

TAF KABY 050520Z 0506/0606 33006KT P6SM SKC
FM060000 00000KT P6SM SKC

Example: see airport list